sensor_id;sensor_type;location;lat;lon;timestamp;P1;durP1;ratioP1;P2;durP2;ratioP2
41721;SDS011;27407;24.142;-110.310;2023-02-10T00:01:02;22.20;;;3.10;;
41721;SDS011;27407;24.142;-110.310;2023-02-10T00:03:29;20.00;;;2.03;;
41721;SDS011;27407;24.142;-110.310;2023-02-10T00:05:56;11.60;;;1.77;;
41721;SDS011;27407;24.142;-110.310;2023-02-10T00:08:23;15.77;;;1.57;;
41721;SDS011;27407;24.142;-110.310;2023-02-10T00:10:49;14.33;;;1.63;;
41721;SDS011;27407;24.142;-110.310;2023-02-10T00:13:16;16.00;;;2.17;;
41721;SDS011;27407;24.142;-110.310;2023-02-10T00:15:43;32.77;;;3.53;;
41721;SDS011;27407;24.142;-110.310;2023-02-10T00:18:10;11.47;;;1.73;;
41721;SDS011;27407;24.142;-110.310;2023-02-10T00:20:36;15.37;;;2.37;;
41721;SDS011;27407;24.142;-110.310;2023-02-10T00:23:03;24.23;;;2.50;;
41721;SDS011;27407;24.142;-110.310;2023-02-10T00:25:34;23.10;;;2.33;;
41721;SDS011;27407;24.142;-110.310;2023-02-10T00:28:01;11.27;;;1.60;;
41721;SDS011;27407;24.142;-110.310;2023-02-10T00:30:28;15.60;;;2.00;;
41721;SDS011;27407;24.142;-110.310;2023-02-10T00:32:55;7.70;;;1.87;;
41721;SDS011;27407;24.142;-110.310;2023-02-10T00:35:23;19.07;;;2.40;;
41721;SDS011;27407;24.142;-110.310;2023-02-10T00:37:49;20.63;;;1.97;;
41721;SDS011;27407;24.142;-110.310;2023-02-10T00:40:16;17.30;;;2.53;;
41721;SDS011;27407;24.142;-110.310;2023-02-10T00:42:43;29.03;;;2.50;;
41721;SDS011;27407;24.142;-110.310;2023-02-10T00:45:10;21.47;;;1.70;;
41721;SDS011;27407;24.142;-110.310;2023-02-10T00:47:37;27.23;;;2.47;;
41721;SDS011;27407;24.142;-110.310;2023-02-10T00:50:05;23.87;;;2.10;;
41721;SDS011;27407;24.142;-110.310;2023-02-10T00:52:32;14.20;;;2.33;;
41721;SDS011;27407;24.142;-110.310;2023-02-10T00:54:59;9.10;;;1.87;;
41721;SDS011;27407;24.142;-110.310;2023-02-10T00:57:25;8.93;;;2.00;;
41721;SDS011;27407;24.142;-110.310;2023-02-10T00:59:52;27.53;;;2.80;;
41721;SDS011;27407;24.142;-110.310;2023-02-10T01:02:21;21.73;;;1.90;;
41721;SDS011;27407;24.142;-110.310;2023-02-10T01:04:48;13.20;;;2.00;;
41721;SDS011;27407;24.142;-110.310;2023-02-10T01:07:14;19.60;;;2.20;;
41721;SDS011;27407;24.142;-110.310;2023-02-10T01:09:41;17.07;;;2.33;;
41721;SDS011;27407;24.142;-110.310;2023-02-10T01:12:08;33.40;;;2.40;;
41721;SDS011;27407;24.142;-110.310;2023-02-10T01:14:34;20.50;;;2.87;;
41721;SDS011;27407;24.142;-110.310;2023-02-10T01:17:01;31.27;;;3.33;;
41721;SDS011;27407;24.142;-110.310;2023-02-10T01:19:28;76.47;;;6.27;;
41721;SDS011;27407;24.142;-110.310;2023-02-10T01:21:55;64.43;;;5.17;;
41721;SDS011;27407;24.142;-110.310;2023-02-10T01:24:21;85.20;;;8.53;;
41721;SDS011;27407;24.142;-110.310;2023-02-10T01:26:48;112.93;;;8.80;;
41721;SDS011;27407;24.142;-110.310;2023-02-10T01:29:15;74.00;;;6.20;;
41721;SDS011;27407;24.142;-110.310;2023-02-10T01:31:41;88.23;;;9.87;;
41721;SDS011;27407;24.142;-110.310;2023-02-10T01:34:08;52.23;;;7.07;;
41721;SDS011;27407;24.142;-110.310;2023-02-10T01:36:35;123.77;;;9.90;;
41721;SDS011;27407;24.142;-110.310;2023-02-10T01:39:02;82.47;;;8.83;;
41721;SDS011;27407;24.142;-110.310;2023-02-10T01:41:28;67.57;;;5.33;;
41721;SDS011;27407;24.142;-110.310;2023-02-10T01:43:56;54.27;;;5.43;;
41721;SDS011;27407;24.142;-110.310;2023-02-10T01:46:26;45.43;;;4.07;;
41721;SDS011;27407;24.142;-110.310;2023-02-10T01:49:03;21.93;;;2.73;;
41721;SDS011;27407;24.142;-110.310;2023-02-10T01:51:42;34.27;;;3.67;;
41721;SDS011;27407;24.142;-110.310;2023-02-10T01:54:24;74.67;;;7.27;;
41721;SDS011;27407;24.142;-110.310;2023-02-10T01:56:56;71.60;;;7.70;;
41721;SDS011;27407;24.142;-110.310;2023-02-10T01:59:23;68.43;;;6.43;;
41721;SDS011;27407;24.142;-110.310;2023-02-10T02:01:53;25.17;;;4.60;;
41721;SDS011;27407;24.142;-110.310;2023-02-10T02:04:20;35.00;;;4.17;;
41721;SDS011;27407;24.142;-110.310;2023-02-10T02:06:47;26.03;;;2.97;;
41721;SDS011;27407;24.142;-110.310;2023-02-10T02:09:14;63.43;;;5.73;;
41721;SDS011;27407;24.142;-110.310;2023-02-10T02:14:56;27.57;;;2.10;;
41721;SDS011;27407;24.142;-110.310;2023-02-10T02:20:32;9.47;;;1.77;;
41721;SDS011;27407;24.142;-110.310;2023-02-10T02:23:48;12.07;;;1.70;;
41721;SDS011;27407;24.142;-110.310;2023-02-10T02:29:45;54.30;;;5.13;;
41721;SDS011;27407;24.142;-110.310;2023-02-10T02:32:25;27.07;;;3.33;;
41721;SDS011;27407;24.142;-110.310;2023-02-10T02:37:30;88.20;;;10.53;;
41721;SDS011;27407;24.142;-110.310;2023-02-10T02:40:00;77.10;;;6.33;;
41721;SDS011;27407;24.142;-110.310;2023-02-10T02:42:28;42.03;;;4.50;;
41721;SDS011;27407;24.142;-110.310;2023-02-10T02:45:01;15.83;;;2.03;;
41721;SDS011;27407;24.142;-110.310;2023-02-10T03:00:48;15.37;;;1.77;;
41721;SDS011;27407;24.142;-110.310;2023-02-10T03:03:16;12.77;;;1.40;;
41721;SDS011;27407;24.142;-110.310;2023-02-10T03:05:44;17.00;;;2.13;;
41721;SDS011;27407;24.142;-110.310;2023-02-10T03:08:11;26.93;;;3.60;;
41721;SDS011;27407;24.142;-110.310;2023-02-10T03:10:37;11.80;;;1.93;;
41721;SDS011;27407;24.142;-110.310;2023-02-10T03:13:04;14.80;;;1.90;;
41721;SDS011;27407;24.142;-110.310;2023-02-10T03:15:30;15.13;;;2.47;;
41721;SDS011;27407;24.142;-110.310;2023-02-10T03:17:57;14.00;;;1.73;;
41721;SDS011;27407;24.142;-110.310;2023-02-10T03:20:24;13.53;;;1.90;;
41721;SDS011;27407;24.142;-110.310;2023-02-10T03:22:50;8.23;;;2.37;;
41721;SDS011;27407;24.142;-110.310;2023-02-10T03:25:17;17.20;;;2.30;;
41721;SDS011;27407;24.142;-110.310;2023-02-10T03:27:44;29.90;;;3.00;;
41721;SDS011;27407;24.142;-110.310;2023-02-10T03:30:11;10.73;;;2.10;;
41721;SDS011;27407;24.142;-110.310;2023-02-10T03:32:37;10.60;;;1.70;;
41721;SDS011;27407;24.142;-110.310;2023-02-10T03:35:04;12.70;;;1.67;;
41721;SDS011;27407;24.142;-110.310;2023-02-10T03:37:31;14.90;;;1.67;;
41721;SDS011;27407;24.142;-110.310;2023-02-10T03:39:58;9.07;;;1.40;;
41721;SDS011;27407;24.142;-110.310;2023-02-10T03:42:25;19.27;;;1.90;;
41721;SDS011;27407;24.142;-110.310;2023-02-10T03:44:51;13.57;;;2.07;;
41721;SDS011;27407;24.142;-110.310;2023-02-10T03:47:18;5.87;;;1.27;;
41721;SDS011;27407;24.142;-110.310;2023-02-10T03:49:45;15.17;;;1.87;;
41721;SDS011;27407;24.142;-110.310;2023-02-10T03:52:11;12.53;;;1.40;;
41721;SDS011;27407;24.142;-110.310;2023-02-10T03:54:38;25.60;;;3.00;;
41721;SDS011;27407;24.142;-110.310;2023-02-10T03:57:05;14.87;;;1.77;;
41721;SDS011;27407;24.142;-110.310;2023-02-10T03:59:32;11.73;;;1.73;;
41721;SDS011;27407;24.142;-110.310;2023-02-10T04:01:59;11.83;;;2.00;;
41721;SDS011;27407;24.142;-110.310;2023-02-10T04:04:26;16.03;;;1.70;;
41721;SDS011;27407;24.142;-110.310;2023-02-10T04:06:52;16.47;;;1.63;;
41721;SDS011;27407;24.142;-110.310;2023-02-10T04:09:19;17.83;;;1.83;;
41721;SDS011;27407;24.142;-110.310;2023-02-10T04:11:46;6.50;;;1.47;;
41721;SDS011;27407;24.142;-110.310;2023-02-10T04:14:13;11.53;;;1.73;;
41721;SDS011;27407;24.142;-110.310;2023-02-10T04:16:39;7.40;;;1.60;;
41721;SDS011;27407;24.142;-110.310;2023-02-10T04:19:06;9.50;;;2.00;;
41721;SDS011;27407;24.142;-110.310;2023-02-10T04:21:33;11.50;;;1.80;;
41721;SDS011;27407;24.142;-110.310;2023-02-10T04:24:00;16.30;;;1.30;;
41721;SDS011;27407;24.142;-110.310;2023-02-10T04:26:26;16.67;;;1.40;;
41721;SDS011;27407;24.142;-110.310;2023-02-10T04:28:53;8.13;;;1.00;;
41721;SDS011;27407;24.142;-110.310;2023-02-10T04:31:20;13.33;;;2.13;;
41721;SDS011;27407;24.142;-110.310;2023-02-10T04:33:46;5.93;;;1.07;;
41721;SDS011;27407;24.142;-110.310;2023-02-10T04:36:13;10.77;;;1.60;;
41721;SDS011;27407;24.142;-110.310;2023-02-10T04:38:40;7.40;;;1.70;;
41721;SDS011;27407;24.142;-110.310;2023-02-10T04:41:06;11.20;;;1.50;;
41721;SDS011;27407;24.142;-110.310;2023-02-10T04:43:33;7.13;;;1.67;;
41721;SDS011;27407;24.142;-110.310;2023-02-10T04:46:00;8.20;;;1.30;;
41721;SDS011;27407;24.142;-110.310;2023-02-10T04:48:30;7.00;;;1.33;;
41721;SDS011;27407;24.142;-110.310;2023-02-10T04:50:58;16.10;;;2.17;;
41721;SDS011;27407;24.142;-110.310;2023-02-10T04:53:25;27.17;;;2.40;;
41721;SDS011;27407;24.142;-110.310;2023-02-10T04:55:52;5.40;;;1.23;;
41721;SDS011;27407;24.142;-110.310;2023-02-10T04:58:19;7.33;;;1.30;;
41721;SDS011;27407;24.142;-110.310;2023-02-10T05:00:47;9.83;;;1.30;;
41721;SDS011;27407;24.142;-110.310;2023-02-10T05:03:13;11.40;;;1.70;;
41721;SDS011;27407;24.142;-110.310;2023-02-10T05:05:40;15.17;;;1.90;;
41721;SDS011;27407;24.142;-110.310;2023-02-10T05:08:07;13.63;;;2.13;;
41721;SDS011;27407;24.142;-110.310;2023-02-10T05:10:33;8.90;;;1.20;;
41721;SDS011;27407;24.142;-110.310;2023-02-10T05:13:00;17.20;;;1.77;;
41721;SDS011;27407;24.142;-110.310;2023-02-10T05:15:29;9.63;;;1.90;;
41721;SDS011;27407;24.142;-110.310;2023-02-10T05:17:56;14.47;;;1.77;;
41721;SDS011;27407;24.142;-110.310;2023-02-10T05:20:23;6.23;;;1.73;;
41721;SDS011;27407;24.142;-110.310;2023-02-10T05:22:49;9.70;;;1.23;;
41721;SDS011;27407;24.142;-110.310;2023-02-10T05:25:16;5.27;;;1.20;;
41721;SDS011;27407;24.142;-110.310;2023-02-10T05:27:43;7.90;;;1.70;;
41721;SDS011;27407;24.142;-110.310;2023-02-10T05:30:09;8.63;;;1.40;;
41721;SDS011;27407;24.142;-110.310;2023-02-10T05:32:38;12.40;;;1.80;;
41721;SDS011;27407;24.142;-110.310;2023-02-10T05:35:06;9.23;;;1.60;;
41721;SDS011;27407;24.142;-110.310;2023-02-10T05:37:33;9.77;;;1.50;;
41721;SDS011;27407;24.142;-110.310;2023-02-10T05:39:59;21.17;;;1.83;;
41721;SDS011;27407;24.142;-110.310;2023-02-10T05:42:26;13.77;;;1.77;;
41721;SDS011;27407;24.142;-110.310;2023-02-10T05:44:53;9.37;;;1.67;;
41721;SDS011;27407;24.142;-110.310;2023-02-10T05:47:19;4.27;;;1.03;;
41721;SDS011;27407;24.142;-110.310;2023-02-10T05:49:53;4.90;;;1.40;;
41721;SDS011;27407;24.142;-110.310;2023-02-10T05:52:27;11.30;;;1.57;;
41721;SDS011;27407;24.142;-110.310;2023-02-10T05:54:54;6.47;;;1.23;;
41721;SDS011;27407;24.142;-110.310;2023-02-10T05:57:21;12.73;;;1.30;;
41721;SDS011;27407;24.142;-110.310;2023-02-10T05:59:47;10.83;;;2.50;;
41721;SDS011;27407;24.142;-110.310;2023-02-10T06:02:14;7.80;;;1.47;;
41721;SDS011;27407;24.142;-110.310;2023-02-10T06:04:41;6.37;;;1.03;;
41721;SDS011;27407;24.142;-110.310;2023-02-10T06:07:07;6.73;;;1.30;;
41721;SDS011;27407;24.142;-110.310;2023-02-10T06:09:34;18.17;;;1.40;;
41721;SDS011;27407;24.142;-110.310;2023-02-10T06:12:01;8.93;;;1.63;;
41721;SDS011;27407;24.142;-110.310;2023-02-10T06:14:29;8.90;;;1.57;;
41721;SDS011;27407;24.142;-110.310;2023-02-10T06:16:55;6.60;;;1.30;;
41721;SDS011;27407;24.142;-110.310;2023-02-10T06:19:22;8.23;;;1.37;;
41721;SDS011;27407;24.142;-110.310;2023-02-10T06:21:49;8.33;;;1.63;;
41721;SDS011;27407;24.142;-110.310;2023-02-10T06:24:15;11.93;;;1.33;;
41721;SDS011;27407;24.142;-110.310;2023-02-10T06:26:46;8.17;;;1.87;;
41721;SDS011;27407;24.142;-110.310;2023-02-10T06:29:12;11.77;;;1.37;;
41721;SDS011;27407;24.142;-110.310;2023-02-10T06:31:39;10.87;;;1.63;;
41721;SDS011;27407;24.142;-110.310;2023-02-10T06:34:05;8.13;;;1.67;;
41721;SDS011;27407;24.142;-110.310;2023-02-10T06:36:33;6.73;;;1.20;;
41721;SDS011;27407;24.142;-110.310;2023-02-10T06:39:00;11.67;;;1.40;;
41721;SDS011;27407;24.142;-110.310;2023-02-10T06:41:26;12.53;;;1.13;;
41721;SDS011;27407;24.142;-110.310;2023-02-10T06:43:53;10.97;;;1.60;;
41721;SDS011;27407;24.142;-110.310;2023-02-10T06:46:20;7.90;;;1.10;;
41721;SDS011;27407;24.142;-110.310;2023-02-10T06:48:47;11.30;;;1.70;;
41721;SDS011;27407;24.142;-110.310;2023-02-10T06:51:13;11.00;;;1.30;;
41721;SDS011;27407;24.142;-110.310;2023-02-10T06:53:40;12.40;;;1.60;;
41721;SDS011;27407;24.142;-110.310;2023-02-10T06:56:08;8.17;;;1.40;;
41721;SDS011;27407;24.142;-110.310;2023-02-10T06:58:35;5.00;;;1.00;;
41721;SDS011;27407;24.142;-110.310;2023-02-10T07:01:08;15.50;;;1.50;;
41721;SDS011;27407;24.142;-110.310;2023-02-10T07:03:36;8.90;;;1.23;;
41721;SDS011;27407;24.142;-110.310;2023-02-10T07:06:03;8.30;;;1.60;;
41721;SDS011;27407;24.142;-110.310;2023-02-10T07:08:31;10.67;;;1.27;;
41721;SDS011;27407;24.142;-110.310;2023-02-10T07:10:57;11.97;;;1.30;;
41721;SDS011;27407;24.142;-110.310;2023-02-10T07:13:25;16.87;;;1.87;;
41721;SDS011;27407;24.142;-110.310;2023-02-10T07:15:51;8.33;;;1.83;;
41721;SDS011;27407;24.142;-110.310;2023-02-10T07:18:18;12.40;;;1.73;;
41721;SDS011;27407;24.142;-110.310;2023-02-10T07:20:45;15.37;;;1.57;;
41721;SDS011;27407;24.142;-110.310;2023-02-10T07:23:12;10.03;;;1.83;;
41721;SDS011;27407;24.142;-110.310;2023-02-10T07:25:38;10.27;;;1.60;;
41721;SDS011;27407;24.142;-110.310;2023-02-10T07:28:05;12.37;;;1.30;;
41721;SDS011;27407;24.142;-110.310;2023-02-10T07:30:33;14.10;;;1.90;;
41721;SDS011;27407;24.142;-110.310;2023-02-10T07:33:00;10.07;;;1.50;;
41721;SDS011;27407;24.142;-110.310;2023-02-10T07:35:27;7.70;;;1.57;;
41721;SDS011;27407;24.142;-110.310;2023-02-10T07:37:54;6.67;;;1.50;;
41721;SDS011;27407;24.142;-110.310;2023-02-10T07:40:21;12.00;;;1.27;;
41721;SDS011;27407;24.142;-110.310;2023-02-10T07:42:47;10.77;;;1.43;;
41721;SDS011;27407;24.142;-110.310;2023-02-10T07:45:14;11.00;;;1.40;;
41721;SDS011;27407;24.142;-110.310;2023-02-10T07:47:41;6.77;;;1.43;;
41721;SDS011;27407;24.142;-110.310;2023-02-10T07:50:08;17.53;;;1.83;;
41721;SDS011;27407;24.142;-110.310;2023-02-10T07:52:34;10.20;;;1.77;;
41721;SDS011;27407;24.142;-110.310;2023-02-10T07:55:01;10.57;;;1.37;;
41721;SDS011;27407;24.142;-110.310;2023-02-10T07:57:29;9.63;;;1.50;;
41721;SDS011;27407;24.142;-110.310;2023-02-10T07:59:56;6.10;;;1.10;;
41721;SDS011;27407;24.142;-110.310;2023-02-10T08:02:22;6.30;;;1.03;;
41721;SDS011;27407;24.142;-110.310;2023-02-10T08:04:49;12.53;;;1.23;;
41721;SDS011;27407;24.142;-110.310;2023-02-10T08:07:19;6.20;;;0.90;;
41721;SDS011;27407;24.142;-110.310;2023-02-10T08:09:46;9.97;;;1.13;;
41721;SDS011;27407;24.142;-110.310;2023-02-10T08:12:13;7.47;;;1.00;;
41721;SDS011;27407;24.142;-110.310;2023-02-10T08:14:39;12.47;;;1.47;;
41721;SDS011;27407;24.142;-110.310;2023-02-10T08:17:06;5.37;;;1.10;;
41721;SDS011;27407;24.142;-110.310;2023-02-10T08:19:33;9.97;;;1.70;;
41721;SDS011;27407;24.142;-110.310;2023-02-10T08:22:02;8.97;;;1.20;;
41721;SDS011;27407;24.142;-110.310;2023-02-10T08:24:30;11.73;;;1.50;;
41721;SDS011;27407;24.142;-110.310;2023-02-10T08:26:56;9.17;;;1.00;;
41721;SDS011;27407;24.142;-110.310;2023-02-10T08:29:23;4.53;;;1.10;;
41721;SDS011;27407;24.142;-110.310;2023-02-10T08:31:50;12.87;;;1.47;;
41721;SDS011;27407;24.142;-110.310;2023-02-10T08:34:21;12.57;;;1.57;;
41721;SDS011;27407;24.142;-110.310;2023-02-10T08:36:48;9.97;;;1.43;;
41721;SDS011;27407;24.142;-110.310;2023-02-10T08:39:15;13.87;;;1.53;;
41721;SDS011;27407;24.142;-110.310;2023-02-10T08:41:42;18.07;;;2.10;;
41721;SDS011;27407;24.142;-110.310;2023-02-10T08:44:09;8.33;;;1.50;;
41721;SDS011;27407;24.142;-110.310;2023-02-10T08:46:38;7.63;;;1.30;;
41721;SDS011;27407;24.142;-110.310;2023-02-10T08:49:04;14.47;;;1.37;;
41721;SDS011;27407;24.142;-110.310;2023-02-10T08:51:31;7.73;;;1.00;;
41721;SDS011;27407;24.142;-110.310;2023-02-10T08:54:01;21.90;;;1.87;;
41721;SDS011;27407;24.142;-110.310;2023-02-10T08:56:28;11.53;;;1.50;;
41721;SDS011;27407;24.142;-110.310;2023-02-10T08:58:55;11.27;;;1.63;;
41721;SDS011;27407;24.142;-110.310;2023-02-10T09:01:23;9.70;;;1.70;;
41721;SDS011;27407;24.142;-110.310;2023-02-10T09:03:54;7.83;;;1.10;;
41721;SDS011;27407;24.142;-110.310;2023-02-10T09:06:22;16.00;;;1.77;;
41721;SDS011;27407;24.142;-110.310;2023-02-10T09:08:54;8.97;;;1.50;;
41721;SDS011;27407;24.142;-110.310;2023-02-10T09:11:21;17.43;;;1.60;;
41721;SDS011;27407;24.142;-110.310;2023-02-10T09:13:49;15.43;;;1.63;;
41721;SDS011;27407;24.142;-110.310;2023-02-10T09:16:16;7.43;;;1.50;;
41721;SDS011;27407;24.142;-110.310;2023-02-10T09:18:43;8.60;;;1.13;;
41721;SDS011;27407;24.142;-110.310;2023-02-10T09:21:09;9.57;;;1.33;;
41721;SDS011;27407;24.142;-110.310;2023-02-10T09:23:36;16.97;;;1.40;;
41721;SDS011;27407;24.142;-110.310;2023-02-10T09:26:03;11.90;;;1.80;;
41721;SDS011;27407;24.142;-110.310;2023-02-10T09:28:30;8.50;;;1.50;;
41721;SDS011;27407;24.142;-110.310;2023-02-10T09:30:56;8.70;;;1.20;;
41721;SDS011;27407;24.142;-110.310;2023-02-10T09:33:23;11.27;;;1.30;;
41721;SDS011;27407;24.142;-110.310;2023-02-10T09:35:50;5.27;;;1.20;;
41721;SDS011;27407;24.142;-110.310;2023-02-10T09:38:16;9.57;;;1.43;;
41721;SDS011;27407;24.142;-110.310;2023-02-10T09:40:48;11.03;;;1.50;;
41721;SDS011;27407;24.142;-110.310;2023-02-10T09:51:51;19.63;;;1.57;;
41721;SDS011;27407;24.142;-110.310;2023-02-10T09:54:22;12.87;;;1.47;;
41721;SDS011;27407;24.142;-110.310;2023-02-10T09:56:49;12.57;;;1.43;;
41721;SDS011;27407;24.142;-110.310;2023-02-10T09:59:18;14.03;;;1.67;;
41721;SDS011;27407;24.142;-110.310;2023-02-10T10:01:53;17.00;;;1.60;;
41721;SDS011;27407;24.142;-110.310;2023-02-10T10:04:24;11.00;;;1.53;;
41721;SDS011;27407;24.142;-110.310;2023-02-10T10:06:58;4.40;;;1.30;;
41721;SDS011;27407;24.142;-110.310;2023-02-10T10:09:45;18.43;;;1.77;;
41721;SDS011;27407;24.142;-110.310;2023-02-10T10:12:18;6.00;;;1.10;;
41721;SDS011;27407;24.142;-110.310;2023-02-10T10:14:45;11.47;;;1.57;;
41721;SDS011;27407;24.142;-110.310;2023-02-10T10:30:45;9.33;;;1.40;;
41721;SDS011;27407;24.142;-110.310;2023-02-10T10:33:37;7.33;;;1.10;;
41721;SDS011;27407;24.142;-110.310;2023-02-10T10:36:19;11.60;;;1.33;;
41721;SDS011;27407;24.142;-110.310;2023-02-10T10:38:57;6.90;;;1.33;;
41721;SDS011;27407;24.142;-110.310;2023-02-10T10:41:34;13.93;;;1.30;;
41721;SDS011;27407;24.142;-110.310;2023-02-10T10:44:04;6.93;;;1.17;;
41721;SDS011;27407;24.142;-110.310;2023-02-10T10:46:35;9.50;;;1.20;;
41721;SDS011;27407;24.142;-110.310;2023-02-10T10:49:09;16.77;;;1.43;;
41721;SDS011;27407;24.142;-110.310;2023-02-10T10:51:35;12.27;;;2.10;;
41721;SDS011;27407;24.142;-110.310;2023-02-10T10:54:04;10.57;;;1.30;;
41721;SDS011;27407;24.142;-110.310;2023-02-10T11:01:46;14.23;;;1.40;;
41721;SDS011;27407;24.142;-110.310;2023-02-10T11:04:15;10.87;;;1.33;;
41721;SDS011;27407;24.142;-110.310;2023-02-10T11:06:45;7.07;;;1.57;;
41721;SDS011;27407;24.142;-110.310;2023-02-10T11:09:19;12.03;;;1.50;;
41721;SDS011;27407;24.142;-110.310;2023-02-10T11:11:46;5.57;;;0.93;;
41721;SDS011;27407;24.142;-110.310;2023-02-10T11:14:18;5.60;;;1.57;;
41721;SDS011;27407;24.142;-110.310;2023-02-10T11:17:04;9.10;;;1.30;;
41721;SDS011;27407;24.142;-110.310;2023-02-10T11:19:51;16.20;;;2.33;;
41721;SDS011;27407;24.142;-110.310;2023-02-10T11:22:20;13.00;;;2.30;;
41721;SDS011;27407;24.142;-110.310;2023-02-10T11:24:48;14.60;;;1.50;;
41721;SDS011;27407;24.142;-110.310;2023-02-10T11:27:17;7.50;;;1.03;;
41721;SDS011;27407;24.142;-110.310;2023-02-10T11:29:50;11.13;;;1.23;;
41721;SDS011;27407;24.142;-110.310;2023-02-10T11:32:22;8.20;;;1.40;;
41721;SDS011;27407;24.142;-110.310;2023-02-10T11:34:50;6.03;;;1.10;;
41721;SDS011;27407;24.142;-110.310;2023-02-10T11:39:46;8.93;;;1.30;;
41721;SDS011;27407;24.142;-110.310;2023-02-10T11:42:21;10.67;;;1.70;;
41721;SDS011;27407;24.142;-110.310;2023-02-10T11:44:58;11.57;;;1.57;;
41721;SDS011;27407;24.142;-110.310;2023-02-10T11:47:27;12.60;;;1.00;;
41721;SDS011;27407;24.142;-110.310;2023-02-10T11:49:55;8.80;;;1.10;;
41721;SDS011;27407;24.142;-110.310;2023-02-10T11:52:23;11.60;;;2.43;;
41721;SDS011;27407;24.142;-110.310;2023-02-10T11:54:53;9.23;;;1.37;;
41721;SDS011;27407;24.142;-110.310;2023-02-10T12:06:47;10.47;;;1.40;;
41721;SDS011;27407;24.142;-110.310;2023-02-10T12:14:57;26.23;;;2.97;;
41721;SDS011;27407;24.142;-110.310;2023-02-10T12:20:42;24.67;;;3.07;;
41721;SDS011;27407;24.142;-110.310;2023-02-10T12:26:18;28.03;;;3.03;;
41721;SDS011;27407;24.142;-110.310;2023-02-10T12:39:30;19.43;;;2.60;;
41721;SDS011;27407;24.142;-110.310;2023-02-10T12:53:34;30.43;;;4.33;;
41721;SDS011;27407;24.142;-110.310;2023-02-10T12:58:56;81.23;;;7.93;;
41721;SDS011;27407;24.142;-110.310;2023-02-10T13:01:32;106.17;;;9.77;;
41721;SDS011;27407;24.142;-110.310;2023-02-10T13:04:16;117.93;;;10.23;;
41721;SDS011;27407;24.142;-110.310;2023-02-10T13:07:10;77.30;;;8.57;;
41721;SDS011;27407;24.142;-110.310;2023-02-10T13:13:03;25.00;;;2.87;;
41721;SDS011;27407;24.142;-110.310;2023-02-10T13:15:35;14.73;;;2.43;;
41721;SDS011;27407;24.142;-110.310;2023-02-10T13:18:17;17.10;;;2.03;;
41721;SDS011;27407;24.142;-110.310;2023-02-10T13:23:46;17.93;;;2.17;;
41721;SDS011;27407;24.142;-110.310;2023-02-10T13:34:46;10.47;;;1.60;;
41721;SDS011;27407;24.142;-110.310;2023-02-10T13:37:19;22.30;;;2.93;;
41721;SDS011;27407;24.142;-110.310;2023-02-10T13:39:52;30.93;;;2.90;;
41721;SDS011;27407;24.142;-110.310;2023-02-10T13:42:25;57.37;;;5.40;;
41721;SDS011;27407;24.142;-110.310;2023-02-10T13:48:19;65.73;;;4.87;;
41721;SDS011;27407;24.142;-110.310;2023-02-10T13:50:41;59.70;;;4.73;;
41721;SDS011;27407;24.142;-110.310;2023-02-10T14:03:56;102.70;;;10.83;;
41721;SDS011;27407;24.142;-110.310;2023-02-10T14:06:34;92.93;;;8.63;;
41721;SDS011;27407;24.142;-110.310;2023-02-10T14:09:06;343.43;;;26.40;;
41721;SDS011;27407;24.142;-110.310;2023-02-10T14:12:18;63.13;;;6.17;;
41721;SDS011;27407;24.142;-110.310;2023-02-10T14:14:52;40.63;;;4.97;;
41721;SDS011;27407;24.142;-110.310;2023-02-10T14:17:25;43.13;;;4.00;;
41721;SDS011;27407;24.142;-110.310;2023-02-10T14:19:57;24.03;;;2.57;;
41721;SDS011;27407;24.142;-110.310;2023-02-10T14:22:32;23.23;;;2.90;;
41721;SDS011;27407;24.142;-110.310;2023-02-10T14:25:14;29.03;;;2.50;;
41721;SDS011;27407;24.142;-110.310;2023-02-10T14:27:48;26.93;;;3.30;;
41721;SDS011;27407;24.142;-110.310;2023-02-10T14:30:20;16.20;;;2.40;;
41721;SDS011;27407;24.142;-110.310;2023-02-10T14:32:57;25.33;;;2.83;;
41721;SDS011;27407;24.142;-110.310;2023-02-10T14:35:24;33.27;;;3.10;;
41721;SDS011;27407;24.142;-110.310;2023-02-10T14:37:54;28.50;;;3.87;;
41721;SDS011;27407;24.142;-110.310;2023-02-10T14:40:23;18.00;;;3.00;;
41721;SDS011;27407;24.142;-110.310;2023-02-10T14:42:51;30.30;;;3.47;;
41721;SDS011;27407;24.142;-110.310;2023-02-10T14:45:19;21.07;;;3.03;;
41721;SDS011;27407;24.142;-110.310;2023-02-10T14:47:54;22.33;;;2.60;;
41721;SDS011;27407;24.142;-110.310;2023-02-10T14:50:28;17.53;;;2.60;;
41721;SDS011;27407;24.142;-110.310;2023-02-10T14:52:57;24.77;;;2.90;;
41721;SDS011;27407;24.142;-110.310;2023-02-10T14:55:27;29.20;;;3.10;;
41721;SDS011;27407;24.142;-110.310;2023-02-10T14:58:12;23.53;;;3.50;;
41721;SDS011;27407;24.142;-110.310;2023-02-10T15:00:52;38.67;;;3.07;;
41721;SDS011;27407;24.142;-110.310;2023-02-10T15:03:21;25.10;;;2.87;;
41721;SDS011;27407;24.142;-110.310;2023-02-10T15:05:49;37.73;;;4.03;;
41721;SDS011;27407;24.142;-110.310;2023-02-10T15:08:21;32.57;;;3.10;;
41721;SDS011;27407;24.142;-110.310;2023-02-10T15:10:52;33.67;;;3.10;;
41721;SDS011;27407;24.142;-110.310;2023-02-10T15:13:22;26.00;;;2.77;;
41721;SDS011;27407;24.142;-110.310;2023-02-10T15:15:57;19.90;;;3.37;;
41721;SDS011;27407;24.142;-110.310;2023-02-10T15:18:25;33.30;;;3.67;;
41721;SDS011;27407;24.142;-110.310;2023-02-10T15:20:56;22.03;;;3.57;;
41721;SDS011;27407;24.142;-110.310;2023-02-10T15:23:25;38.27;;;4.40;;
41721;SDS011;27407;24.142;-110.310;2023-02-10T15:31:36;23.53;;;3.30;;
41721;SDS011;27407;24.142;-110.310;2023-02-10T15:34:17;20.43;;;3.07;;
41721;SDS011;27407;24.142;-110.310;2023-02-10T15:36:59;20.60;;;3.40;;
41721;SDS011;27407;24.142;-110.310;2023-02-10T15:39:33;38.70;;;3.50;;
41721;SDS011;27407;24.142;-110.310;2023-02-10T15:42:06;23.57;;;3.30;;
41721;SDS011;27407;24.142;-110.310;2023-02-10T15:44:41;36.37;;;3.70;;
41721;SDS011;27407;24.142;-110.310;2023-02-10T15:49:47;24.90;;;3.80;;
41721;SDS011;27407;24.142;-110.310;2023-02-10T15:54:50;28.80;;;3.70;;
41721;SDS011;27407;24.142;-110.310;2023-02-10T15:57:19;23.93;;;3.03;;
41721;SDS011;27407;24.142;-110.310;2023-02-10T15:59:46;25.70;;;3.40;;
41721;SDS011;27407;24.142;-110.310;2023-02-10T16:02:17;31.97;;;3.33;;
41721;SDS011;27407;24.142;-110.310;2023-02-10T16:04:44;34.70;;;3.43;;
41721;SDS011;27407;24.142;-110.310;2023-02-10T16:07:19;38.20;;;4.00;;
41721;SDS011;27407;24.142;-110.310;2023-02-10T16:09:49;14.97;;;2.70;;
41721;SDS011;27407;24.142;-110.310;2023-02-10T16:12:16;35.27;;;2.93;;
41721;SDS011;27407;24.142;-110.310;2023-02-10T16:14:43;19.97;;;2.60;;
41721;SDS011;27407;24.142;-110.310;2023-02-10T16:17:10;19.40;;;2.53;;
41721;SDS011;27407;24.142;-110.310;2023-02-10T16:19:42;27.53;;;3.03;;
41721;SDS011;27407;24.142;-110.310;2023-02-10T16:22:09;23.80;;;2.70;;
41721;SDS011;27407;24.142;-110.310;2023-02-10T16:24:36;25.13;;;3.00;;
41721;SDS011;27407;24.142;-110.310;2023-02-10T16:27:03;30.40;;;3.33;;
41721;SDS011;27407;24.142;-110.310;2023-02-10T16:29:30;24.90;;;2.40;;
41721;SDS011;27407;24.142;-110.310;2023-02-10T16:32:04;21.00;;;3.60;;